sensor_id;sensor_type;location;lat;lon;timestamp;P1;P2;P0
46044;PMS7003;31781;54.094;13.428;2023-09-07T00:00:57;11.40;11.40;8.80
46044;PMS7003;31781;54.094;13.428;2023-09-07T00:03:06;13.00;13.00;9.20
46044;PMS7003;31781;54.094;13.428;2023-09-07T00:05:09;9.60;9.60;8.20
46044;PMS7003;31781;54.094;13.428;2023-09-07T00:07:11;6.80;6.00;5.80
46044;PMS7003;31781;54.094;13.428;2023-09-07T00:09:13;10.20;10.20;8.40
46044;PMS7003;31781;54.094;13.428;2023-09-07T00:11:29;10.80;10.80;8.60
46044;PMS7003;31781;54.094;13.428;2023-09-07T00:13:47;10.40;10.40;8.00
46044;PMS7003;31781;54.094;13.428;2023-09-07T00:15:58;12.60;12.60;10.40
46044;PMS7003;31781;54.094;13.428;2023-09-07T00:18:01;12.60;10.80;7.60
46044;PMS7003;31781;54.094;13.428;2023-09-07T00:20:03;10.00;10.00;8.00
46044;PMS7003;31781;54.094;13.428;2023-09-07T00:22:08;15.20;15.00;11.60
46044;PMS7003;31781;54.094;13.428;2023-09-07T00:24:20;13.00;13.00;9.20
46044;PMS7003;31781;54.094;13.428;2023-09-07T00:26:49;11.60;11.60;8.20
46044;PMS7003;31781;54.094;13.428;2023-09-07T00:28:57;11.80;11.80;10.40
46044;PMS7003;31781;54.094;13.428;2023-09-07T00:30:59;13.40;13.00;9.60
46044;PMS7003;31781;54.094;13.428;2023-09-07T00:33:04;12.80;12.80;10.00
46044;PMS7003;31781;54.094;13.428;2023-09-07T00:35:20;14.80;14.20;10.80
46044;PMS7003;31781;54.094;13.428;2023-09-07T00:40:13;15.20;13.80;9.40
46044;PMS7003;31781;54.094;13.428;2023-09-07T00:42:36;13.60;13.60;9.80
46044;PMS7003;31781;54.094;13.428;2023-09-07T00:44:38;12.60;12.60;8.80
46044;PMS7003;31781;54.094;13.428;2023-09-07T00:46:54;14.00;14.00;9.20
46044;PMS7003;31781;54.094;13.428;2023-09-07T00:49:09;15.20;13.40;9.20
46044;PMS7003;31781;54.094;13.428;2023-09-07T00:51:27;12.80;12.80;9.20
46044;PMS7003;31781;54.094;13.428;2023-09-07T00:54:05;14.00;14.00;10.20
46044;PMS7003;31781;54.094;13.428;2023-09-07T01:12:56;11.00;11.00;9.20
46044;PMS7003;31781;54.094;13.428;2023-09-07T01:15:11;13.00;12.60;9.80
46044;PMS7003;31781;54.094;13.428;2023-09-07T01:17:30;11.60;10.60;8.40
46044;PMS7003;31781;54.094;13.428;2023-09-07T01:19:51;11.80;11.80;8.40
46044;PMS7003;31781;54.094;13.428;2023-09-07T01:22:29;14.80;13.80;11.00
46044;PMS7003;31781;54.094;13.428;2023-09-07T01:24:32;16.00;12.80;9.60
46044;PMS7003;31781;54.094;13.428;2023-09-07T01:26:48;12.40;12.40;9.20
46044;PMS7003;31781;54.094;13.428;2023-09-07T01:28:59;15.40;13.80;8.40
46044;PMS7003;31781;54.094;13.428;2023-09-07T01:31:04;11.80;11.80;9.00
46044;PMS7003;31781;54.094;13.428;2023-09-07T01:33:19;10.80;10.80;8.20
46044;PMS7003;31781;54.094;13.428;2023-09-07T01:35:24;11.40;11.40;9.00
46044;PMS7003;31781;54.094;13.428;2023-09-07T01:37:30;12.60;12.60;9.20
46044;PMS7003;31781;54.094;13.428;2023-09-07T01:39:32;12.00;12.00;9.20
46044;PMS7003;31781;54.094;13.428;2023-09-07T01:41:38;14.00;14.00;11.20
46044;PMS7003;31781;54.094;13.428;2023-09-07T01:43:41;12.20;12.20;8.80
46044;PMS7003;31781;54.094;13.428;2023-09-07T01:45:58;11.60;11.40;8.80
46044;PMS7003;31781;54.094;13.428;2023-09-07T01:48:14;13.60;12.80;11.00
46044;PMS7003;31781;54.094;13.428;2023-09-07T01:50:16;11.40;10.20;7.40
46044;PMS7003;31781;54.094;13.428;2023-09-07T01:52:20;17.60;13.80;10.80
46044;PMS7003;31781;54.094;13.428;2023-09-07T01:57:00;12.40;12.40;9.00
46044;PMS7003;31781;54.094;13.428;2023-09-07T01:59:16;12.40;12.40;10.40
46044;PMS7003;31781;54.094;13.428;2023-09-07T02:01:23;10.20;9.80;7.20
46044;PMS7003;31781;54.094;13.428;2023-09-07T02:03:25;14.80;13.00;9.80
46044;PMS7003;31781;54.094;13.428;2023-09-07T02:05:47;12.00;12.00;9.00
46044;PMS7003;31781;54.094;13.428;2023-09-07T02:07:49;11.40;11.40;7.60
46044;PMS7003;31781;54.094;13.428;2023-09-07T02:10:05;12.80;12.80;11.00
46044;PMS7003;31781;54.094;13.428;2023-09-07T02:12:39;12.80;12.60;9.00
46044;PMS7003;31781;54.094;13.428;2023-09-07T02:15:09;13.60;13.60;10.80
46044;PMS7003;31781;54.094;13.428;2023-09-07T02:17:25;14.60;12.40;9.20
46044;PMS7003;31781;54.094;13.428;2023-09-07T02:19:27;11.20;11.20;8.80
46044;PMS7003;31781;54.094;13.428;2023-09-07T02:21:29;12.80;12.80;10.40
46044;PMS7003;31781;54.094;13.428;2023-09-07T02:23:33;13.00;13.00;9.60
46044;PMS7003;31781;54.094;13.428;2023-09-07T02:25:38;12.60;12.20;8.60
46044;PMS7003;31781;54.094;13.428;2023-09-07T02:27:44;9.60;9.60;7.40
46044;PMS7003;31781;54.094;13.428;2023-09-07T02:30:02;15.00;15.00;11.60
46044;PMS7003;31781;54.094;13.428;2023-09-07T02:32:08;15.40;13.80;9.80
46044;PMS7003;31781;54.094;13.428;2023-09-07T02:34:11;14.40;13.60;11.60
46044;PMS7003;31781;54.094;13.428;2023-09-07T02:36:15;10.80;9.60;5.80
46044;PMS7003;31781;54.094;13.428;2023-09-07T02:38:16;15.00;14.20;9.40
46044;PMS7003;31781;54.094;13.428;2023-09-07T02:40:27;20.60;16.60;12.40
46044;PMS7003;31781;54.094;13.428;2023-09-07T02:45:58;15.00;15.00;11.20
46044;PMS7003;31781;54.094;13.428;2023-09-07T02:48:21;18.00;17.00;12.00
46044;PMS7003;31781;54.094;13.428;2023-09-07T02:51:06;19.20;18.00;13.40
46044;PMS7003;31781;54.094;13.428;2023-09-07T02:54:12;16.20;16.20;11.80
46044;PMS7003;31781;54.094;13.428;2023-09-07T02:56:22;17.80;16.20;11.80
46044;PMS7003;31781;54.094;13.428;2023-09-07T02:58:52;18.20;18.20;12.20
46044;PMS7003;31781;54.094;13.428;2023-09-07T03:00:56;16.40;16.40;13.20
46044;PMS7003;31781;54.094;13.428;2023-09-07T03:02:58;15.00;15.00;11.20
46044;PMS7003;31781;54.094;13.428;2023-09-07T03:05:01;14.40;14.40;10.80
46044;PMS7003;31781;54.094;13.428;2023-09-07T03:07:03;15.60;15.60;11.40
46044;PMS7003;31781;54.094;13.428;2023-09-07T03:09:05;17.20;15.40;10.80
46044;PMS7003;31781;54.094;13.428;2023-09-07T03:11:07;16.80;16.80;10.80
46044;PMS7003;31781;54.094;13.428;2023-09-07T03:13:12;14.80;14.80;11.60
46044;PMS7003;31781;54.094;13.428;2023-09-07T03:15:16;14.40;14.40;11.20
46044;PMS7003;31781;54.094;13.428;2023-09-07T03:17:19;14.20;14.00;10.20
46044;PMS7003;31781;54.094;13.428;2023-09-07T03:19:35;15.00;15.00;11.80
46044;PMS7003;31781;54.094;13.428;2023-09-07T03:21:38;12.20;12.20;8.80
46044;PMS7003;31781;54.094;13.428;2023-09-07T03:23:52;15.40;15.40;9.00
46044;PMS7003;31781;54.094;13.428;2023-09-07T03:26:10;15.20;14.20;10.60
46044;PMS7003;31781;54.094;13.428;2023-09-07T03:30:57;14.20;14.20;11.00
46044;PMS7003;31781;54.094;13.428;2023-09-07T03:36:00;11.60;11.60;9.40
46044;PMS7003;31781;54.094;13.428;2023-09-07T03:38:06;13.00;13.00;9.80
46044;PMS7003;31781;54.094;13.428;2023-09-07T03:40:24;14.00;12.20;9.80
46044;PMS7003;31781;54.094;13.428;2023-09-07T03:42:43;16.20;14.80;12.00
46044;PMS7003;31781;54.094;13.428;2023-09-07T03:44:50;14.60;14.60;11.20
46044;PMS7003;31781;54.094;13.428;2023-09-07T03:47:00;12.40;12.40;10.60
46044;PMS7003;31781;54.094;13.428;2023-09-07T03:49:20;15.60;15.60;12.20
46044;PMS7003;31781;54.094;13.428;2023-09-07T03:54:10;15.00;13.80;11.20
46044;PMS7003;31781;54.094;13.428;2023-09-07T03:56:25;14.00;13.60;11.00
46044;PMS7003;31781;54.094;13.428;2023-09-07T03:58:33;15.20;15.20;11.60
46044;PMS7003;31781;54.094;13.428;2023-09-07T04:00:49;12.80;12.80;10.80
46044;PMS7003;31781;54.094;13.428;2023-09-07T04:03:04;16.80;15.40;11.80
46044;PMS7003;31781;54.094;13.428;2023-09-07T04:05:21;17.40;15.20;12.40
46044;PMS7003;31781;54.094;13.428;2023-09-07T04:07:26;15.60;15.60;12.40
46044;PMS7003;31781;54.094;13.428;2023-09-07T04:09:41;14.80;14.80;11.80
46044;PMS7003;31781;54.094;13.428;2023-09-07T04:11:57;15.60;15.60;12.00
46044;PMS7003;31781;54.094;13.428;2023-09-07T04:14:16;18.80;17.40;12.80
46044;PMS7003;31781;54.094;13.428;2023-09-07T04:16:33;14.20;14.20;11.00
46044;PMS7003;31781;54.094;13.428;2023-09-07T04:18:49;16.80;15.80;12.00
46044;PMS7003;31781;54.094;13.428;2023-09-07T04:21:05;15.40;15.40;10.60
46044;PMS7003;31781;54.094;13.428;2023-09-07T04:23:08;13.80;13.80;10.40
46044;PMS7003;31781;54.094;13.428;2023-09-07T04:25:13;14.80;14.80;11.60
46044;PMS7003;31781;54.094;13.428;2023-09-07T04:27:15;15.80;15.20;12.00
46044;PMS7003;31781;54.094;13.428;2023-09-07T04:29:20;15.20;15.20;11.00
46044;PMS7003;31781;54.094;13.428;2023-09-07T04:31:26;11.60;11.60;9.00
46044;PMS7003;31781;54.094;13.428;2023-09-07T04:33:29;14.60;14.60;10.20
46044;PMS7003;31781;54.094;13.428;2023-09-07T04:35:39;14.40;14.40;10.60
46044;PMS7003;31781;54.094;13.428;2023-09-07T04:37:41;12.80;12.80;9.40
46044;PMS7003;31781;54.094;13.428;2023-09-07T04:39:48;15.00;14.20;10.80
46044;PMS7003;31781;54.094;13.428;2023-09-07T04:42:05;13.60;12.80;8.80
46044;PMS7003;31781;54.094;13.428;2023-09-07T04:44:07;12.80;12.80;8.60
46044;PMS7003;31781;54.094;13.428;2023-09-07T04:46:15;13.00;12.40;9.20
46044;PMS7003;31781;54.094;13.428;2023-09-07T04:48:19;13.80;13.20;10.00
46044;PMS7003;31781;54.094;13.428;2023-09-07T04:50:34;12.40;12.40;8.80
46044;PMS7003;31781;54.094;13.428;2023-09-07T04:52:50;11.80;11.00;9.20
46044;PMS7003;31781;54.094;13.428;2023-09-07T04:57:53;13.60;13.60;11.00
46044;PMS7003;31781;54.094;13.428;2023-09-07T05:00:09;13.40;13.40;11.20
46044;PMS7003;31781;54.094;13.428;2023-09-07T05:02:26;13.40;13.40;9.40
46044;PMS7003;31781;54.094;13.428;2023-09-07T05:04:42;11.20;11.20;8.20
46044;PMS7003;31781;54.094;13.428;2023-09-07T05:07:28;11.80;10.40;8.20
46044;PMS7003;31781;54.094;13.428;2023-09-07T05:10:09;13.40;13.40;9.80
46044;PMS7003;31781;54.094;13.428;2023-09-07T05:23:29;12.20;12.20;9.00
46044;PMS7003;31781;54.094;13.428;2023-09-07T05:25:53;12.20;9.00;7.40
46044;PMS7003;31781;54.094;13.428;2023-09-07T05:28:12;12.60;12.00;11.00
46044;PMS7003;31781;54.094;13.428;2023-09-07T05:30:27;11.80;11.80;8.80
46044;PMS7003;31781;54.094;13.428;2023-09-07T05:32:42;11.80;11.80;8.60
46044;PMS7003;31781;54.094;13.428;2023-09-07T05:35:03;11.20;9.00;8.20
46044;PMS7003;31781;54.094;13.428;2023-09-07T05:37:25;12.00;12.00;9.00
46044;PMS7003;31781;54.094;13.428;2023-09-07T05:58:59;11.80;11.80;8.40
46044;PMS7003;31781;54.094;13.428;2023-09-07T06:01:02;11.80;11.80;9.00
46044;PMS7003;31781;54.094;13.428;2023-09-07T06:03:17;9.20;8.00;6.00
46044;PMS7003;31781;54.094;13.428;2023-09-07T06:05:48;10.00;10.00;8.00
46044;PMS7003;31781;54.094;13.428;2023-09-07T06:07:53;16.20;13.60;9.20
46044;PMS7003;31781;54.094;13.428;2023-09-07T06:10:09;15.60;12.00;9.60
46044;PMS7003;31781;54.094;13.428;2023-09-07T06:12:29;12.40;12.40;8.00
46044;PMS7003;31781;54.094;13.428;2023-09-07T06:22:51;20.00;15.50;11.00
46044;PMS7003;31781;54.094;13.428;2023-09-07T06:24:53;14.20;14.20;11.40
46044;PMS7003;31781;54.094;13.428;2023-09-07T06:26:55;13.60;13.60;9.80
46044;PMS7003;31781;54.094;13.428;2023-09-07T06:28:59;14.60;14.00;10.00
46044;PMS7003;31781;54.094;13.428;2023-09-07T06:31:01;13.80;12.00;9.80
46044;PMS7003;31781;54.094;13.428;2023-09-07T06:33:04;17.00;14.60;11.00
46044;PMS7003;31781;54.094;13.428;2023-09-07T06:35:08;14.60;12.40;9.60
46044;PMS7003;31781;54.094;13.428;2023-09-07T06:37:10;11.40;11.40;8.60
46044;PMS7003;31781;54.094;13.428;2023-09-07T06:39:16;15.60;14.40;11.60
46044;PMS7003;31781;54.094;13.428;2023-09-07T06:41:17;15.20;12.40;9.00
46044;PMS7003;31781;54.094;13.428;2023-09-07T06:43:19;11.75;11.75;8.00
46044;PMS7003;31781;54.094;13.428;2023-09-07T06:45:22;13.00;10.25;7.50
46044;PMS7003;31781;54.094;13.428;2023-09-07T06:47:24;11.75;10.75;9.25
46044;PMS7003;31781;54.094;13.428;2023-09-07T06:49:31;13.25;12.75;9.75
46044;PMS7003;31781;54.094;13.428;2023-09-07T06:51:47;14.00;14.00;10.50
46044;PMS7003;31781;54.094;13.428;2023-09-07T06:53:57;12.75;12.75;8.50
46044;PMS7003;31781;54.094;13.428;2023-09-07T06:56:03;10.50;10.50;8.25
46044;PMS7003;31781;54.094;13.428;2023-09-07T06:58:22;8.80;8.80;6.20
46044;PMS7003;31781;54.094;13.428;2023-09-07T07:00:26;12.75;12.75;9.00
46044;PMS7003;31781;54.094;13.428;2023-09-07T07:02:28;10.75;10.00;8.00
46044;PMS7003;31781;54.094;13.428;2023-09-07T07:04:45;10.75;10.25;7.75
46044;PMS7003;31781;54.094;13.428;2023-09-07T07:06:55;10.75;10.75;9.75
46044;PMS7003;31781;54.094;13.428;2023-09-07T07:08:57;14.00;14.00;10.00
46044;PMS7003;31781;54.094;13.428;2023-09-07T07:11:02;11.75;11.75;10.00
46044;PMS7003;31781;54.094;13.428;2023-09-07T07:13:04;11.50;11.50;9.25
46044;PMS7003;31781;54.094;13.428;2023-09-07T07:15:06;12.75;12.00;8.25
46044;PMS7003;31781;54.094;13.428;2023-09-07T07:17:09;10.50;10.00;9.00
46044;PMS7003;31781;54.094;13.428;2023-09-07T07:19:12;10.75;9.75;8.00
46044;PMS7003;31781;54.094;13.428;2023-09-07T07:21:14;12.00;12.00;9.50
46044;PMS7003;31781;54.094;13.428;2023-09-07T07:23:16;12.25;12.25;10.00
46044;PMS7003;31781;54.094;13.428;2023-09-07T07:25:18;11.25;11.25;8.50
46044;PMS7003;31781;54.094;13.428;2023-09-07T07:27:21;11.50;11.50;9.25
46044;PMS7003;31781;54.094;13.428;2023-09-07T07:29:25;9.25;9.25;7.00
46044;PMS7003;31781;54.094;13.428;2023-09-07T07:31:27;10.75;10.75;9.75
46044;PMS7003;31781;54.094;13.428;2023-09-07T07:33:29;10.75;9.50;7.25
46044;PMS7003;31781;54.094;13.428;2023-09-07T07:35:36;12.00;10.50;9.00
46044;PMS7003;31781;54.094;13.428;2023-09-07T07:37:39;12.25;10.25;8.50
46044;PMS7003;31781;54.094;13.428;2023-09-07T07:39:43;11.00;11.00;9.25
46044;PMS7003;31781;54.094;13.428;2023-09-07T07:41:45;8.25;8.25;7.00
46044;PMS7003;31781;54.094;13.428;2023-09-07T07:43:49;10.50;10.50;8.25
46044;PMS7003;31781;54.094;13.428;2023-09-07T07:45:51;11.75;11.25;8.00
46044;PMS7003;31781;54.094;13.428;2023-09-07T07:47:56;10.00;9.00;8.00
46044;PMS7003;31781;54.094;13.428;2023-09-07T07:49:58;10.25;10.25;7.50
46044;PMS7003;31781;54.094;13.428;2023-09-07T07:52:00;9.00;8.25;6.75
46044;PMS7003;31781;54.094;13.428;2023-09-07T07:54:03;9.75;9.00;7.25
46044;PMS7003;31781;54.094;13.428;2023-09-07T07:56:05;11.25;10.00;7.75
46044;PMS7003;31781;54.094;13.428;2023-09-07T07:58:07;11.00;10.00;8.00
46044;PMS7003;31781;54.094;13.428;2023-09-07T08:00:12;8.00;8.00;7.00
46044;PMS7003;31781;54.094;13.428;2023-09-07T08:02:15;7.00;7.00;6.75
46044;PMS7003;31781;54.094;13.428;2023-09-07T08:04:17;9.75;8.75;6.75
46044;PMS7003;31781;54.094;13.428;2023-09-07T08:06:20;13.25;10.25;8.25
46044;PMS7003;31781;54.094;13.428;2023-09-07T08:08:22;12.00;10.50;8.25
46044;PMS7003;31781;54.094;13.428;2023-09-07T08:10:24;10.50;8.75;7.25
46044;PMS7003;31781;54.094;13.428;2023-09-07T08:12:26;8.50;7.50;6.25
46044;PMS7003;31781;54.094;13.428;2023-09-07T08:14:28;12.00;11.00;8.25
46044;PMS7003;31781;54.094;13.428;2023-09-07T08:16:32;10.00;8.00;7.25
46044;PMS7003;31781;54.094;13.428;2023-09-07T08:18:34;8.00;8.00;6.00
46044;PMS7003;31781;54.094;13.428;2023-09-07T08:20:37;8.00;8.00;7.25
46044;PMS7003;31781;54.094;13.428;2023-09-07T08:22:41;10.75;9.00;7.75
46044;PMS7003;31781;54.094;13.428;2023-09-07T08:24:45;9.25;9.00;8.00
46044;PMS7003;31781;54.094;13.428;2023-09-07T08:26:47;8.25;7.25;6.00
46044;PMS7003;31781;54.094;13.428;2023-09-07T08:28:49;11.75;9.00;7.00
46044;PMS7003;31781;54.094;13.428;2023-09-07T08:30:52;11.75;10.50;7.25
46044;PMS7003;31781;54.094;13.428;2023-09-07T08:33:04;11.50;8.50;7.00
46044;PMS7003;31781;54.094;13.428;2023-09-07T08:35:06;8.25;8.25;6.75
46044;PMS7003;31781;54.094;13.428;2023-09-07T08:37:09;10.50;10.50;9.00
46044;PMS7003;31781;54.094;13.428;2023-09-07T08:39:11;9.00;9.00;7.50
46044;PMS7003;31781;54.094;13.428;2023-09-07T08:41:13;10.25;10.25;9.00
46044;PMS7003;31781;54.094;13.428;2023-09-07T08:43:15;9.25;8.00;7.25
46044;PMS7003;31781;54.094;13.428;2023-09-07T08:45:17;11.75;9.50;8.00
46044;PMS7003;31781;54.094;13.428;2023-09-07T08:47:22;9.50;9.00;8.25
46044;PMS7003;31781;54.094;13.428;2023-09-07T08:49:26;7.50;7.50;6.50
46044;PMS7003;31781;54.094;13.428;2023-09-07T08:51:28;10.00;10.00;8.00
46044;PMS7003;31781;54.094;13.428;2023-09-07T08:53:30;7.75;7.75;7.50
46044;PMS7003;31781;54.094;13.428;2023-09-07T08:55:33;8.25;8.00;7.00
46044;PMS7003;31781;54.094;13.428;2023-09-07T08:57:35;10.25;10.00;9.00
46044;PMS7003;31781;54.094;13.428;2023-09-07T08:59:37;9.00;9.00;7.75
46044;PMS7003;31781;54.094;13.428;2023-09-07T09:01:39;10.75;10.00;8.00
46044;PMS7003;31781;54.094;13.428;2023-09-07T09:03:41;11.50;9.75;8.00
46044;PMS7003;31781;54.094;13.428;2023-09-07T09:05:46;9.50;9.50;8.00
46044;PMS7003;31781;54.094;13.428;2023-09-07T09:08:00;9.75;9.25;7.25
46044;PMS7003;31781;54.094;13.428;2023-09-07T09:10:02;10.00;8.75;7.50
46044;PMS7003;31781;54.094;13.428;2023-09-07T09:12:08;11.00;9.50;7.75
46044;PMS7003;31781;54.094;13.428;2023-09-07T09:14:10;10.00;10.00;8.00
46044;PMS7003;31781;54.094;13.428;2023-09-07T09:16:18;7.50;7.50;6.00
46044;PMS7003;31781;54.094;13.428;2023-09-07T09:18:20;10.00;10.00;9.00
46044;PMS7003;31781;54.094;13.428;2023-09-07T09:20:22;11.25;10.00;9.00
46044;PMS7003;31781;54.094;13.428;2023-09-07T09:22:26;10.75;9.50;8.75
46044;PMS7003;31781;54.094;13.428;2023-09-07T09:24:31;8.75;8.75;8.00
46044;PMS7003;31781;54.094;13.428;2023-09-07T09:26:33;10.00;9.25;9.00
46044;PMS7003;31781;54.094;13.428;2023-09-07T09:28:35;10.75;10.00;8.50
46044;PMS7003;31781;54.094;13.428;2023-09-07T09:30:37;10.00;10.00;8.00
46044;PMS7003;31781;54.094;13.428;2023-09-07T09:32:39;9.25;9.00;8.00
46044;PMS7003;31781;54.094;13.428;2023-09-07T09:34:43;8.25;8.25;6.00
46044;PMS7003;31781;54.094;13.428;2023-09-07T09:36:49;8.75;8.75;6.75
46044;PMS7003;31781;54.094;13.428;2023-09-07T09:38:53;9.25;9.25;7.25
46044;PMS7003;31781;54.094;13.428;2023-09-07T09:40:54;9.75;9.75;9.00
46044;PMS7003;31781;54.094;13.428;2023-09-07T09:42:56;8.00;8.00;6.00
46044;PMS7003;31781;54.094;13.428;2023-09-07T09:45:01;9.50;9.50;8.75
46044;PMS7003;31781;54.094;13.428;2023-09-07T09:47:04;8.00;7.00;7.00
46044;PMS7003;31781;54.094;13.428;2023-09-07T09:49:08;10.75;10.75;7.75
46044;PMS7003;31781;54.094;13.428;2023-09-07T09:51:10;10.00;9.00;8.00
46044;PMS7003;31781;54.094;13.428;2023-09-07T09:53:12;9.75;9.75;8.75
46044;PMS7003;31781;54.094;13.428;2023-09-07T09:55:15;9.25;9.25;8.00
46044;PMS7003;31781;54.094;13.428;2023-09-07T09:57:17;6.50;6.50;5.50
46044;PMS7003;31781;54.094;13.428;2023-09-07T09:59:19;9.00;9.00;9.00
46044;PMS7003;31781;54.094;13.428;2023-09-07T10:01:25;9.25;9.25;8.50
46044;PMS7003;31781;54.094;13.428;2023-09-07T10:03:28;10.50;9.00;8.25
46044;PMS7003;31781;54.094;13.428;2023-09-07T10:05:32;10.00;9.50;8.00
46044;PMS7003;31781;54.094;13.428;2023-09-07T10:07:44;9.50;9.00;7.75
46044;PMS7003;31781;54.094;13.428;2023-09-07T10:09:48;9.75;8.50;7.25
46044;PMS7003;31781;54.094;13.428;2023-09-07T10:11:52;9.75;9.75;8.00
46044;PMS7003;31781;54.094;13.428;2023-09-07T10:13:58;12.25;10.00;9.00
46044;PMS7003;31781;54.094;13.428;2023-09-07T10:16:00;9.00;9.00;7.75
46044;PMS7003;31781;54.094;13.428;2023-09-07T10:18:02;10.25;9.75;7.75
46044;PMS7003;31781;54.094;13.428;2023-09-07T10:20:08;9.00;9.00;7.50
46044;PMS7003;31781;54.094;13.428;2023-09-07T10:22:10;10.00;10.00;9.00
46044;PMS7003;31781;54.094;13.428;2023-09-07T10:24:23;10.00;10.00;8.50
46044;PMS7003;31781;54.094;13.428;2023-09-07T10:26:25;11.00;11.00;8.50
46044;PMS7003;31781;54.094;13.428;2023-09-07T10:28:28;9.75;9.75;9.00
46044;PMS7003;31781;54.094;13.428;2023-09-07T10:30:30;9.25;9.25;8.00
46044;PMS7003;31781;54.094;13.428;2023-09-07T10:32:37;11.60;11.60;9.00
46044;PMS7003;31781;54.094;13.428;2023-09-07T10:34:39;9.00;8.20;8.00
46044;PMS7003;31781;54.094;13.428;2023-09-07T10:36:41;9.75;8.75;7.00
46044;PMS7003;31781;54.094;13.428;2023-09-07T10:38:43;7.50;7.50;7.00
46044;PMS7003;31781;54.094;13.428;2023-09-07T10:40:46;10.75;10.75;8.00
46044;PMS7003;31781;54.094;13.428;2023-09-07T10:42:49;8.25;8.25;7.00
46044;PMS7003;31781;54.094;13.428;2023-09-07T10:44:52;9.25;9.25;8.00
46044;PMS7003;31781;54.094;13.428;2023-09-07T10:46:54;10.00;10.00;8.00
46044;PMS7003;31781;54.094;13.428;2023-09-07T10:48:56;9.20;9.20;8.00
46044;PMS7003;31781;54.094;13.428;2023-09-07T10:50:58;10.25;9.25;8.00
46044;PMS7003;31781;54.094;13.428;2023-09-07T10:53:01;8.20;8.20;7.00
46044;PMS7003;31781;54.094;13.428;2023-09-07T10:55:03;10.80;10.80;9.00
46044;PMS7003;31781;54.094;13.428;2023-09-07T10:57:10;9.00;8.75;7.50
46044;PMS7003;31781;54.094;13.428;2023-09-07T10:59:13;12.50;11.50;10.25
46044;PMS7003;31781;54.094;13.428;2023-09-07T11:01:16;11.20;10.80;9.60
46044;PMS7003;31781;54.094;13.428;2023-09-07T11:03:18;12.20;11.80;8.60
46044;PMS7003;31781;54.094;13.428;2023-09-07T11:05:20;12.20;11.00;9.60
46044;PMS7003;31781;54.094;13.428;2023-09-07T11:07:22;10.00;9.60;9.00
46044;PMS7003;31781;54.094;13.428;2023-09-07T11:09:24;8.00;8.00;7.40
46044;PMS7003;31781;54.094;13.428;2023-09-07T11:11:26;10.00;10.00;8.40
46044;PMS7003;31781;54.094;13.428;2023-09-07T11:13:31;10.20;10.20;8.80
46044;PMS7003;31781;54.094;13.428;2023-09-07T11:15:35;8.20;8.00;6.40
46044;PMS7003;31781;54.094;13.428;2023-09-07T11:17:38;10.20;10.20;9.20
46044;PMS7003;31781;54.094;13.428;2023-09-07T11:19:41;8.60;7.20;6.80
46044;PMS7003;31781;54.094;13.428;2023-09-07T11:21:42;10.00;10.00;9.00
46044;PMS7003;31781;54.094;13.428;2023-09-07T11:23:44;9.60;8.20;6.80
46044;PMS7003;31781;54.094;13.428;2023-09-07T11:25:47;13.40;11.20;9.60
46044;PMS7003;31781;54.094;13.428;2023-09-07T11:27:53;8.80;8.80;7.40
46044;PMS7003;31781;54.094;13.428;2023-09-07T11:29:55;10.60;10.60;8.40
46044;PMS7003;31781;54.094;13.428;2023-09-07T11:32:05;11.40;11.40;9.60
46044;PMS7003;31781;54.094;13.428;2023-09-07T11:34:12;9.40;9.40;8.20
46044;PMS7003;31781;54.094;13.428;2023-09-07T11:36:15;9.40;9.40;8.20
46044;PMS7003;31781;54.094;13.428;2023-09-07T11:38:17;10.00;10.00;8.20
46044;PMS7003;31781;54.094;13.428;2023-09-07T11:40:19;10.00;10.00;9.00
46044;PMS7003;31781;54.094;13.428;2023-09-07T11:42:21;11.60;11.40;8.60
46044;PMS7003;31781;54.094;13.428;2023-09-07T11:44:23;12.60;10.80;8.80
46044;PMS7003;31781;54.094;13.428;2023-09-07T11:46:25;14.00;11.00;9.40
46044;PMS7003;31781;54.094;13.428;2023-09-07T11:48:28;13.40;11.00;9.00
46044;PMS7003;31781;54.094;13.428;2023-09-07T11:50:33;12.60;12.60;10.00
46044;PMS7003;31781;54.094;13.428;2023-09-07T11:52:37;11.00;11.00;8.80
46044;PMS7003;31781;54.094;13.428;2023-09-07T11:54:39;13.00;11.40;9.00
46044;PMS7003;31781;54.094;13.428;2023-09-07T11:56:40;10.20;10.20;9.00
46044;PMS7003;31781;54.094;13.428;2023-09-07T11:58:42;8.80;8.80;8.00
46044;PMS7003;31781;54.094;13.428;2023-09-07T12:00:45;12.20;12.20;10.00
46044;PMS7003;31781;54.094;13.428;2023-09-07T12:02:47;11.00;9.60;8.00
46044;PMS7003;31781;54.094;13.428;2023-09-07T12:04:49;10.20;9.80;8.40
46044;PMS7003;31781;54.094;13.428;2023-09-07T12:06:52;10.60;10.40;9.40
46044;PMS7003;31781;54.094;13.428;2023-09-07T12:08:58;13.00;12.00;10.00
46044;PMS7003;31781;54.094;13.428;2023-09-07T12:11:00;10.80;10.80;9.00
46044;PMS7003;31781;54.094;13.428;2023-09-07T12:13:02;8.60;8.60;8.20
46044;PMS7003;31781;54.094;13.428;2023-09-07T12:15:04;11.00;10.40;8.00
46044;PMS7003;31781;54.094;13.428;2023-09-07T12:17:07;13.40;10.80;10.00
46044;PMS7003;31781;54.094;13.428;2023-09-07T12:19:08;9.80;9.40;8.40
46044;PMS7003;31781;54.094;13.428;2023-09-07T12:21:10;9.60;8.40;7.20
46044;PMS7003;31781;54.094;13.428;2023-09-07T12:23:13;10.80;10.20;8.60
46044;PMS7003;31781;54.094;13.428;2023-09-07T12:25:18;10.00;9.60;8.20
46044;PMS7003;31781;54.094;13.428;2023-09-07T12:27:20;12.80;12.60;10.40
46044;PMS7003;31781;54.094;13.428;2023-09-07T12:29:25;13.40;12.00;9.80
46044;PMS7003;31781;54.094;13.428;2023-09-07T12:31:27;14.80;11.00;9.40
46044;PMS7003;31781;54.094;13.428;2023-09-07T12:33:29;9.80;9.80;8.20
46044;PMS7003;31781;54.094;13.428;2023-09-07T12:35:31;12.20;12.20;10.00
46044;PMS7003;31781;54.094;13.428;2023-09-07T12:37:32;11.60;11.60;9.20
46044;PMS7003;31781;54.094;13.428;2023-09-07T12:39:36;7.00;7.00;5.00
46044;PMS7003;31781;54.094;13.428;2023-09-07T12:41:41;10.00;10.00;8.20
46044;PMS7003;31781;54.094;13.428;2023-09-07T12:43:42;10.00;10.00;7.80
46044;PMS7003;31781;54.094;13.428;2023-09-07T12:45:44;10.00;10.00;8.40
46044;PMS7003;31781;54.094;13.428;2023-09-07T12:47:47;12.00;9.60;8.60
46044;PMS7003;31781;54.094;13.428;2023-09-07T12:49:48;10.00;9.60;7.80
46044;PMS7003;31781;54.094;13.428;2023-09-07T12:51:53;8.20;8.20;7.20
46044;PMS7003;31781;54.094;13.428;2023-09-07T12:53:54;13.80;13.00;9.20
46044;PMS7003;31781;54.094;13.428;2023-09-07T12:55:59;12.40;12.40;8.80
46044;PMS7003;31781;54.094;13.428;2023-09-07T12:58:01;8.80;8.80;7.80
46044;PMS7003;31781;54.094;13.428;2023-09-07T13:00:03;11.20;11.20;8.60
46044;PMS7003;31781;54.094;13.428;2023-09-07T13:02:06;11.40;10.40;7.80
46044;PMS7003;31781;54.094;13.428;2023-09-07T13:04:07;12.00;11.00;9.20
46044;PMS7003;31781;54.094;13.428;2023-09-07T13:06:09;11.00;9.80;9.00
46044;PMS7003;31781;54.094;13.428;2023-09-07T13:08:11;9.80;9.80;8.20
46044;PMS7003;31781;54.094;13.428;2023-09-07T13:10:13;11.20;11.20;8.60